sensor_id;sensor_type;location;lat;lon;timestamp;temperature;humidity
5118;DHT22;2578;51.622;7.046;2023-06-04T00:01:04;11.40;99.90
5118;DHT22;2578;51.622;7.046;2023-06-04T00:03:31;11.40;99.90
5118;DHT22;2578;51.622;7.046;2023-06-04T00:05:56;11.40;99.90
5118;DHT22;2578;51.622;7.046;2023-06-04T00:15:40;11.20;99.90
5118;DHT22;2578;51.622;7.046;2023-06-04T00:20:33;11.20;99.90
5118;DHT22;2578;51.622;7.046;2023-06-04T00:22:58;11.20;99.90
5118;DHT22;2578;51.622;7.046;2023-06-04T00:27:51;11.20;99.90
5118;DHT22;2578;51.622;7.046;2023-06-04T00:32:42;11.30;99.90
5118;DHT22;2578;51.622;7.046;2023-06-04T00:35:08;11.30;99.90
5118;DHT22;2578;51.622;7.046;2023-06-04T00:37:34;11.20;99.90
5118;DHT22;2578;51.622;7.046;2023-06-04T00:42:26;11.20;99.90
5118;DHT22;2578;51.622;7.046;2023-06-04T00:44:52;11.20;99.90
5118;DHT22;2578;51.622;7.046;2023-06-04T00:47:19;11.20;99.90
5118;DHT22;2578;51.622;7.046;2023-06-04T00:52:14;11.10;1.00
5118;DHT22;2578;51.622;7.046;2023-06-04T00:54:40;11.00;1.00
5118;DHT22;2578;51.622;7.046;2023-06-04T00:59:36;11.10;1.00
5118;DHT22;2578;51.622;7.046;2023-06-04T01:02:07;11.00;1.00
5118;DHT22;2578;51.622;7.046;2023-06-04T01:04:44;11.00;1.00
5118;DHT22;2578;51.622;7.046;2023-06-04T01:07:11;11.00;1.00
5118;DHT22;2578;51.622;7.046;2023-06-04T01:09:39;11.00;1.00
5118;DHT22;2578;51.622;7.046;2023-06-04T01:12:05;10.90;1.00
5118;DHT22;2578;51.622;7.046;2023-06-04T01:14:31;10.90;1.00
5118;DHT22;2578;51.622;7.046;2023-06-04T01:17:09;10.90;1.00
5118;DHT22;2578;51.622;7.046;2023-06-04T01:25:33;10.70;1.00
5118;DHT22;2578;51.622;7.046;2023-06-04T01:28:01;10.60;1.00
5118;DHT22;2578;51.622;7.046;2023-06-04T01:30:31;10.30;1.00
5118;DHT22;2578;51.622;7.046;2023-06-04T01:32:58;10.80;1.00
5118;DHT22;2578;51.622;7.046;2023-06-04T01:35:25;10.10;1.00
5118;DHT22;2578;51.622;7.046;2023-06-04T01:37:51;9.90;1.00
5118;DHT22;2578;51.622;7.046;2023-06-04T01:42:44;9.60;1.00
5118;DHT22;2578;51.622;7.046;2023-06-04T01:45:10;8.70;1.00
5118;DHT22;2578;51.622;7.046;2023-06-04T01:47:36;10.70;1.00
5118;DHT22;2578;51.622;7.046;2023-06-04T01:50:03;9.00;1.00
5118;DHT22;2578;51.622;7.046;2023-06-04T01:52:28;9.00;1.00
5118;DHT22;2578;51.622;7.046;2023-06-04T01:54:54;8.90;1.00
5118;DHT22;2578;51.622;7.046;2023-06-04T01:57:21;8.80;1.00
5118;DHT22;2578;51.622;7.046;2023-06-04T01:59:47;10.30;1.00
5118;DHT22;2578;51.622;7.046;2023-06-04T02:02:14;8.50;99.90
5118;DHT22;2578;51.622;7.046;2023-06-04T02:04:40;8.30;1.00
5118;DHT22;2578;51.622;7.046;2023-06-04T02:07:09;8.10;1.00
5118;DHT22;2578;51.622;7.046;2023-06-04T02:09:36;8.20;1.00
5118;DHT22;2578;51.622;7.046;2023-06-04T02:12:02;9.60;1.00
5118;DHT22;2578;51.622;7.046;2023-06-04T02:14:28;7.90;1.00
5118;DHT22;2578;51.622;7.046;2023-06-04T02:19:23;7.90;1.00
5118;DHT22;2578;51.622;7.046;2023-06-04T02:21:51;9.30;1.00
5118;DHT22;2578;51.622;7.046;2023-06-04T02:24:17;7.90;1.00
5118;DHT22;2578;51.622;7.046;2023-06-04T02:29:09;7.90;1.00
5118;DHT22;2578;51.622;7.046;2023-06-04T02:31:34;8.10;1.00
5118;DHT22;2578;51.622;7.046;2023-06-04T02:38:52;7.60;1.00
5118;DHT22;2578;51.622;7.046;2023-06-04T02:43:44;7.60;1.00
5118;DHT22;2578;51.622;7.046;2023-06-04T02:46:09;7.90;1.00
5118;DHT22;2578;51.622;7.046;2023-06-04T02:51:01;7.40;1.00
5118;DHT22;2578;51.622;7.046;2023-06-04T02:55:53;7.30;3.30
5118;DHT22;2578;51.622;7.046;2023-06-04T03:00:47;7.20;99.90
5118;DHT22;2578;51.622;7.046;2023-06-04T03:03:12;7.20;99.90
5118;DHT22;2578;51.622;7.046;2023-06-04T03:05:38;7.10;99.90
5118;DHT22;2578;51.622;7.046;2023-06-04T03:08:04;8.20;99.90
5118;DHT22;2578;51.622;7.046;2023-06-04T03:15:22;7.00;99.90
5118;DHT22;2578;51.622;7.046;2023-06-04T03:17:48;7.00;99.90
5118;DHT22;2578;51.622;7.046;2023-06-04T03:22:40;7.10;99.90
5118;DHT22;2578;51.622;7.046;2023-06-04T03:25:06;7.20;99.90
5118;DHT22;2578;51.622;7.046;2023-06-04T03:27:32;7.30;99.90
5118;DHT22;2578;51.622;7.046;2023-06-04T03:29:58;7.30;99.90
5118;DHT22;2578;51.622;7.046;2023-06-04T03:32:24;7.20;99.90
5118;DHT22;2578;51.622;7.046;2023-06-04T03:34:49;7.20;99.90
5118;DHT22;2578;51.622;7.046;2023-06-04T03:37:16;7.20;99.90
5118;DHT22;2578;51.622;7.046;2023-06-04T03:39:41;8.40;99.90
5118;DHT22;2578;51.622;7.046;2023-06-04T03:42:07;7.20;99.90
5118;DHT22;2578;51.622;7.046;2023-06-04T03:44:38;7.20;99.90
5118;DHT22;2578;51.622;7.046;2023-06-04T03:47:04;7.20;99.90
5118;DHT22;2578;51.622;7.046;2023-06-04T03:49:30;7.30;99.90
5118;DHT22;2578;51.622;7.046;2023-06-04T03:51:55;8.00;99.90
5118;DHT22;2578;51.622;7.046;2023-06-04T03:56:47;7.10;99.90
5118;DHT22;2578;51.622;7.046;2023-06-04T03:59:13;7.10;99.90
5118;DHT22;2578;51.622;7.046;2023-06-04T04:04:05;7.10;99.90
5118;DHT22;2578;51.622;7.046;2023-06-04T04:06:31;7.10;99.90
5118;DHT22;2578;51.622;7.046;2023-06-04T04:08:56;7.00;99.90
5118;DHT22;2578;51.622;7.046;2023-06-04T04:11:23;7.20;99.90
5118;DHT22;2578;51.622;7.046;2023-06-04T04:13:49;7.30;99.90
5118;DHT22;2578;51.622;7.046;2023-06-04T04:18:42;7.40;99.90
5118;DHT22;2578;51.622;7.046;2023-06-04T04:21:11;7.70;1.00
5118;DHT22;2578;51.622;7.046;2023-06-04T04:23:38;7.70;1.00
5118;DHT22;2578;51.622;7.046;2023-06-04T04:26:06;7.70;1.00
5118;DHT22;2578;51.622;7.046;2023-06-04T04:28:32;7.80;1.00
5118;DHT22;2578;51.622;7.046;2023-06-04T04:30:59;7.90;1.00
5118;DHT22;2578;51.622;7.046;2023-06-04T04:33:28;8.20;1.70
5118;DHT22;2578;51.622;7.046;2023-06-04T04:35:58;9.30;55.00
5118;DHT22;2578;51.622;7.046;2023-06-04T04:38:25;8.20;1.00
5118;DHT22;2578;51.622;7.046;2023-06-04T04:40:51;9.50;1.00
5118;DHT22;2578;51.622;7.046;2023-06-04T04:45:45;8.40;99.90
5118;DHT22;2578;51.622;7.046;2023-06-04T04:50:37;9.60;99.90
5118;DHT22;2578;51.622;7.046;2023-06-04T04:55:28;9.20;99.90
5118;DHT22;2578;51.622;7.046;2023-06-04T05:00:20;11.00;99.90
5118;DHT22;2578;51.622;7.046;2023-06-04T05:02:46;11.30;99.90
5118;DHT22;2578;51.622;7.046;2023-06-04T05:05:12;12.10;99.90
5118;DHT22;2578;51.622;7.046;2023-06-04T05:07:37;12.60;1.00
5118;DHT22;2578;51.622;7.046;2023-06-04T05:10:03;13.40;52.60
5118;DHT22;2578;51.622;7.046;2023-06-04T05:12:30;14.10;99.90
5118;DHT22;2578;51.622;7.046;2023-06-04T05:14:56;14.70;99.90
5118;DHT22;2578;51.622;7.046;2023-06-04T05:17:22;15.10;99.90
5118;DHT22;2578;51.622;7.046;2023-06-04T05:19:57;15.70;99.90
5118;DHT22;2578;51.622;7.046;2023-06-04T05:22:37;16.40;99.90
5118;DHT22;2578;51.622;7.046;2023-06-04T05:25:03;16.70;99.70
5118;DHT22;2578;51.622;7.046;2023-06-04T05:27:29;16.90;95.90
5118;DHT22;2578;51.622;7.046;2023-06-04T05:29:54;17.30;91.20
5118;DHT22;2578;51.622;7.046;2023-06-04T05:32:20;17.50;80.70
5118;DHT22;2578;51.622;7.046;2023-06-04T05:34:48;17.70;49.30
5118;DHT22;2578;51.622;7.046;2023-06-04T05:37:14;17.70;52.10
5118;DHT22;2578;51.622;7.046;2023-06-04T05:39:42;17.80;50.90
5118;DHT22;2578;51.622;7.046;2023-06-04T05:42:08;17.80;34.80
5118;DHT22;2578;51.622;7.046;2023-06-04T05:44:33;18.00;40.40
5118;DHT22;2578;51.622;7.046;2023-06-04T05:46:59;18.00;40.70
5118;DHT22;2578;51.622;7.046;2023-06-04T05:49:24;18.00;22.80
5118;DHT22;2578;51.622;7.046;2023-06-04T05:51:50;18.00;21.90
5118;DHT22;2578;51.622;7.046;2023-06-04T05:56:42;18.00;11.40
5118;DHT22;2578;51.622;7.046;2023-06-04T06:01:33;18.20;9.00
5118;DHT22;2578;51.622;7.046;2023-06-04T06:06:26;18.30;12.20
5118;DHT22;2578;51.622;7.046;2023-06-04T06:08:51;18.50;10.20
5118;DHT22;2578;51.622;7.046;2023-06-04T06:13:44;18.40;1.70
5118;DHT22;2578;51.622;7.046;2023-06-04T06:16:09;18.40;2.30
5118;DHT22;2578;51.622;7.046;2023-06-04T06:18:35;18.20;1.00
5118;DHT22;2578;51.622;7.046;2023-06-04T06:21:00;18.20;1.00
5118;DHT22;2578;51.622;7.046;2023-06-04T06:23:26;18.20;1.00
5118;DHT22;2578;51.622;7.046;2023-06-04T06:25:52;18.20;1.00
5118;DHT22;2578;51.622;7.046;2023-06-04T06:28:18;18.20;1.00
5118;DHT22;2578;51.622;7.046;2023-06-04T06:30:44;18.20;1.00
5118;DHT22;2578;51.622;7.046;2023-06-04T06:33:10;18.20;1.00
5118;DHT22;2578;51.622;7.046;2023-06-04T06:35:35;18.20;1.00
5118;DHT22;2578;51.622;7.046;2023-06-04T06:38:01;18.20;1.00
5118;DHT22;2578;51.622;7.046;2023-06-04T06:40:27;18.40;1.00
5118;DHT22;2578;51.622;7.046;2023-06-04T06:42:52;18.40;1.00
5118;DHT22;2578;51.622;7.046;2023-06-04T06:45:19;18.70;1.00
5118;DHT22;2578;51.622;7.046;2023-06-04T06:50:11;19.10;1.00
5118;DHT22;2578;51.622;7.046;2023-06-04T06:52:37;19.20;1.00
5118;DHT22;2578;51.622;7.046;2023-06-04T06:55:04;19.20;1.00
5118;DHT22;2578;51.622;7.046;2023-06-04T06:57:30;19.10;1.00
5118;DHT22;2578;51.622;7.046;2023-06-04T06:59:56;19.20;1.00
5118;DHT22;2578;51.622;7.046;2023-06-04T07:02:22;19.90;1.00
5118;DHT22;2578;51.622;7.046;2023-06-04T07:04:48;19.90;1.00
5118;DHT22;2578;51.622;7.046;2023-06-04T07:07:13;20.20;1.00
5118;DHT22;2578;51.622;7.046;2023-06-04T07:09:39;20.50;1.00
5118;DHT22;2578;51.622;7.046;2023-06-04T07:12:05;20.60;1.00
5118;DHT22;2578;51.622;7.046;2023-06-04T07:14:31;20.80;1.00
5118;DHT22;2578;51.622;7.046;2023-06-04T07:16:57;20.70;1.00
5118;DHT22;2578;51.622;7.046;2023-06-04T07:19:23;20.90;1.00
5118;DHT22;2578;51.622;7.046;2023-06-04T07:21:50;21.40;1.00
5118;DHT22;2578;51.622;7.046;2023-06-04T07:24:15;21.50;1.00
5118;DHT22;2578;51.622;7.046;2023-06-04T07:26:41;21.70;1.00
5118;DHT22;2578;51.622;7.046;2023-06-04T07:29:07;21.40;1.00
5118;DHT22;2578;51.622;7.046;2023-06-04T07:31:33;21.40;1.00
5118;DHT22;2578;51.622;7.046;2023-06-04T07:33:58;21.40;1.00
5118;DHT22;2578;51.622;7.046;2023-06-04T07:36:24;21.40;1.00
5118;DHT22;2578;51.622;7.046;2023-06-04T07:38:49;21.40;1.00
5118;DHT22;2578;51.622;7.046;2023-06-04T07:41:15;21.30;1.00
5118;DHT22;2578;51.622;7.046;2023-06-04T07:43:42;21.70;1.00
5118;DHT22;2578;51.622;7.046;2023-06-04T07:46:08;21.70;1.00
5118;DHT22;2578;51.622;7.046;2023-06-04T07:48:35;21.80;1.00
5118;DHT22;2578;51.622;7.046;2023-06-04T07:51:02;21.80;1.00
5118;DHT22;2578;51.622;7.046;2023-06-04T07:53:29;22.10;1.00
5118;DHT22;2578;51.622;7.046;2023-06-04T07:55:56;22.00;1.00
5118;DHT22;2578;51.622;7.046;2023-06-04T07:58:22;22.70;1.00
5118;DHT22;2578;51.622;7.046;2023-06-04T08:00:48;22.70;1.00
5118;DHT22;2578;51.622;7.046;2023-06-04T08:03:14;22.90;1.00
5118;DHT22;2578;51.622;7.046;2023-06-04T08:05:40;23.10;1.00
5118;DHT22;2578;51.622;7.046;2023-06-04T08:08:06;23.10;1.00
5118;DHT22;2578;51.622;7.046;2023-06-04T08:10:32;23.30;1.00
5118;DHT22;2578;51.622;7.046;2023-06-04T08:12:58;23.30;1.00
5118;DHT22;2578;51.622;7.046;2023-06-04T08:15:24;23.40;1.00
5118;DHT22;2578;51.622;7.046;2023-06-04T08:17:49;23.40;1.00
5118;DHT22;2578;51.622;7.046;2023-06-04T08:20:15;23.20;1.00
5118;DHT22;2578;51.622;7.046;2023-06-04T08:22:41;23.50;1.00
5118;DHT22;2578;51.622;7.046;2023-06-04T08:25:07;23.60;1.00
5118;DHT22;2578;51.622;7.046;2023-06-04T08:27:34;23.90;1.00
5118;DHT22;2578;51.622;7.046;2023-06-04T08:30:00;24.00;1.00
5118;DHT22;2578;51.622;7.046;2023-06-04T08:32:26;23.90;1.00
5118;DHT22;2578;51.622;7.046;2023-06-04T08:34:51;23.40;1.00
5118;DHT22;2578;51.622;7.046;2023-06-04T08:37:17;23.30;1.00
5118;DHT22;2578;51.622;7.046;2023-06-04T08:39:43;23.40;1.00
5118;DHT22;2578;51.622;7.046;2023-06-04T08:42:20;23.60;1.00
5118;DHT22;2578;51.622;7.046;2023-06-04T08:44:50;24.20;1.00
5118;DHT22;2578;51.622;7.046;2023-06-04T08:47:19;24.50;1.00
5118;DHT22;2578;51.622;7.046;2023-06-04T08:49:49;24.80;1.00
5118;DHT22;2578;51.622;7.046;2023-06-04T08:52:16;25.00;1.00
5118;DHT22;2578;51.622;7.046;2023-06-04T08:54:42;24.70;1.00
5118;DHT22;2578;51.622;7.046;2023-06-04T08:57:08;24.70;1.00
5118;DHT22;2578;51.622;7.046;2023-06-04T08:59:35;24.50;1.00
5118;DHT22;2578;51.622;7.046;2023-06-04T09:02:02;24.40;1.00
5118;DHT22;2578;51.622;7.046;2023-06-04T09:04:29;24.40;1.00
5118;DHT22;2578;51.622;7.046;2023-06-04T09:07:02;24.60;1.00
5118;DHT22;2578;51.622;7.046;2023-06-04T09:11:56;24.70;1.00
5118;DHT22;2578;51.622;7.046;2023-06-04T09:14:23;26.80;1.00
5118;DHT22;2578;51.622;7.046;2023-06-04T09:16:53;24.70;1.00
5118;DHT22;2578;51.622;7.046;2023-06-04T09:19:20;24.80;1.00
5118;DHT22;2578;51.622;7.046;2023-06-04T09:24:16;25.00;1.00
5118;DHT22;2578;51.622;7.046;2023-06-04T09:26:42;25.10;1.00
5118;DHT22;2578;51.622;7.046;2023-06-04T09:29:08;25.20;1.00
5118;DHT22;2578;51.622;7.046;2023-06-04T09:31:34;25.10;1.00
5118;DHT22;2578;51.622;7.046;2023-06-04T09:34:04;25.20;1.00
5118;DHT22;2578;51.622;7.046;2023-06-04T09:36:31;25.10;1.00
5118;DHT22;2578;51.622;7.046;2023-06-04T09:38:57;25.10;1.00
5118;DHT22;2578;51.622;7.046;2023-06-04T09:41:23;25.20;1.00
5118;DHT22;2578;51.622;7.046;2023-06-04T09:43:49;24.50;1.00
5118;DHT22;2578;51.622;7.046;2023-06-04T09:46:18;24.50;1.00
5118;DHT22;2578;51.622;7.046;2023-06-04T09:48:44;24.50;1.00
5118;DHT22;2578;51.622;7.046;2023-06-04T09:51:12;24.70;1.00
5118;DHT22;2578;51.622;7.046;2023-06-04T09:56:05;24.80;1.00
5118;DHT22;2578;51.622;7.046;2023-06-04T09:58:33;25.00;1.00
5118;DHT22;2578;51.622;7.046;2023-06-04T10:01:01;25.50;1.00
5118;DHT22;2578;51.622;7.046;2023-06-04T10:03:33;25.60;1.00
5118;DHT22;2578;51.622;7.046;2023-06-04T10:06:00;25.60;1.00
5118;DHT22;2578;51.622;7.046;2023-06-04T10:08:27;25.60;1.00
5118;DHT22;2578;51.622;7.046;2023-06-04T10:11:01;25.40;1.00
5118;DHT22;2578;51.622;7.046;2023-06-04T10:13:29;25.20;1.00
5118;DHT22;2578;51.622;7.046;2023-06-04T10:15:59;25.30;1.00
5118;DHT22;2578;51.622;7.046;2023-06-04T10:18:28;25.60;1.00
5118;DHT22;2578;51.622;7.046;2023-06-04T10:20:57;25.90;1.00
5118;DHT22;2578;51.622;7.046;2023-06-04T10:25:51;25.50;1.00
5118;DHT22;2578;51.622;7.046;2023-06-04T10:28:20;25.30;1.00
5118;DHT22;2578;51.622;7.046;2023-06-04T10:30:47;25.40;1.00
5118;DHT22;2578;51.622;7.046;2023-06-04T10:33:17;25.50;1.00
5118;DHT22;2578;51.622;7.046;2023-06-04T10:35:43;25.30;1.00
5118;DHT22;2578;51.622;7.046;2023-06-04T10:38:10;25.00;1.00
5118;DHT22;2578;51.622;7.046;2023-06-04T10:40:37;25.40;1.00
5118;DHT22;2578;51.622;7.046;2023-06-04T10:43:08;26.10;1.00
5118;DHT22;2578;51.622;7.046;2023-06-04T10:45:34;26.60;1.00
5118;DHT22;2578;51.622;7.046;2023-06-04T10:48:01;26.10;1.00
5118;DHT22;2578;51.622;7.046;2023-06-04T10:55:20;25.80;1.00
5118;DHT22;2578;51.622;7.046;2023-06-04T10:57:56;25.70;1.00
5118;DHT22;2578;51.622;7.046;2023-06-04T11:00:22;25.70;1.00
5118;DHT22;2578;51.622;7.046;2023-06-04T11:02:55;25.80;1.00
5118;DHT22;2578;51.622;7.046;2023-06-04T11:05:21;26.40;1.00
5118;DHT22;2578;51.622;7.046;2023-06-04T11:07:48;26.60;1.00
5118;DHT22;2578;51.622;7.046;2023-06-04T11:10:16;26.70;1.00
5118;DHT22;2578;51.622;7.046;2023-06-04T11:12:46;26.90;1.00
5118;DHT22;2578;51.622;7.046;2023-06-04T11:15:13;26.80;1.00
5118;DHT22;2578;51.622;7.046;2023-06-04T11:17:52;26.50;1.00
5118;DHT22;2578;51.622;7.046;2023-06-04T11:20:19;26.40;1.00
5118;DHT22;2578;51.622;7.046;2023-06-04T11:22:58;26.40;1.00
5118;DHT22;2578;51.622;7.046;2023-06-04T11:25:29;26.50;1.00
5118;DHT22;2578;51.622;7.046;2023-06-04T11:27:56;26.70;1.00
5118;DHT22;2578;51.622;7.046;2023-06-04T11:30:23;27.00;1.00
5118;DHT22;2578;51.622;7.046;2023-06-04T11:32:49;27.10;1.00
5118;DHT22;2578;51.622;7.046;2023-06-04T11:35:15;27.10;1.00
5118;DHT22;2578;51.622;7.046;2023-06-04T11:37:41;27.20;1.00
5118;DHT22;2578;51.622;7.046;2023-06-04T11:40:17;27.30;1.00
5118;DHT22;2578;51.622;7.046;2023-06-04T11:42:44;27.40;1.00
5118;DHT22;2578;51.622;7.046;2023-06-04T11:45:14;27.60;1.00
5118;DHT22;2578;51.622;7.046;2023-06-04T11:47:53;27.30;1.00
5118;DHT22;2578;51.622;7.046;2023-06-04T11:50:20;27.20;1.00
5118;DHT22;2578;51.622;7.046;2023-06-04T11:52:47;27.00;1.00
5118;DHT22;2578;51.622;7.046;2023-06-04T11:57:40;26.80;1.00
5118;DHT22;2578;51.622;7.046;2023-06-04T12:00:07;26.30;1.00
5118;DHT22;2578;51.622;7.046;2023-06-04T12:02:52;26.40;1.00
5118;DHT22;2578;51.622;7.046;2023-06-04T12:05:19;26.50;1.00
5118;DHT22;2578;51.622;7.046;2023-06-04T12:07:49;26.50;1.00
5118;DHT22;2578;51.622;7.046;2023-06-04T12:10:17;26.80;1.00
5118;DHT22;2578;51.622;7.046;2023-06-04T12:12:43;27.40;1.00
5118;DHT22;2578;51.622;7.046;2023-06-04T12:15:09;28.00;1.00
5118;DHT22;2578;51.622;7.046;2023-06-04T12:17:36;28.00;1.00
5118;DHT22;2578;51.622;7.046;2023-06-04T12:20:02;28.30;1.00
5118;DHT22;2578;51.622;7.046;2023-06-04T12:22:30;27.70;1.00
5118;DHT22;2578;51.622;7.046;2023-06-04T12:24:57;27.60;1.00
5118;DHT22;2578;51.622;7.046;2023-06-04T12:27:24;27.70;1.00
5118;DHT22;2578;51.622;7.046;2023-06-04T12:30:05;27.80;1.00
5118;DHT22;2578;51.622;7.046;2023-06-04T12:32:35;27.70;1.00
5118;DHT22;2578;51.622;7.046;2023-06-04T12:35:01;28.20;1.00
5118;DHT22;2578;51.622;7.046;2023-06-04T12:37:27;28.30;1.00
5118;DHT22;2578;51.622;7.046;2023-06-04T12:39:56;28.80;1.00
5118;DHT22;2578;51.622;7.046;2023-06-04T12:42:22;28.80;1.00
5118;DHT22;2578;51.622;7.046;2023-06-04T12:44:48;28.60;1.00
5118;DHT22;2578;51.622;7.046;2023-06-04T12:47:14;28.60;1.00
5118;DHT22;2578;51.622;7.046;2023-06-04T12:49:40;28.80;1.00
5118;DHT22;2578;51.622;7.046;2023-06-04T12:52:06;28.60;1.00
5118;DHT22;2578;51.622;7.046;2023-06-04T12:54:32;28.40;1.00
5118;DHT22;2578;51.622;7.046;2023-06-04T12:56:58;28.30;1.00
5118;DHT22;2578;51.622;7.046;2023-06-04T12:59:25;28.10;1.00
5118;DHT22;2578;51.622;7.046;2023-06-04T13:01:52;28.10;1.00
5118;DHT22;2578;51.622;7.046;2023-06-04T13:04:17;28.20;1.00
5118;DHT22;2578;51.622;7.046;2023-06-04T13:06:43;28.20;1.00
5118;DHT22;2578;51.622;7.046;2023-06-04T13:09:11;28.30;1.00
5118;DHT22;2578;51.622;7.046;2023-06-04T13:11:41;28.30;1.00
5118;DHT22;2578;51.622;7.046;2023-06-04T13:14:07;28.00;1.00
5118;DHT22;2578;51.622;7.046;2023-06-04T13:16:33;28.00;1.00
5118;DHT22;2578;51.622;7.046;2023-06-04T13:18:59;27.70;1.00
5118;DHT22;2578;51.622;7.046;2023-06-04T13:21:25;27.70;1.00
5118;DHT22;2578;51.622;7.046;2023-06-04T13:23:50;27.90;1.00
5118;DHT22;2578;51.622;7.046;2023-06-04T13:26:17;27.60;1.00
5118;DHT22;2578;51.622;7.046;2023-06-04T13:28:43;27.40;1.00
5118;DHT22;2578;51.622;7.046;2023-06-04T13:31:08;27.40;1.00
5118;DHT22;2578;51.622;7.046;2023-06-04T13:33:34;27.50;1.00
5118;DHT22;2578;51.622;7.046;2023-06-04T13:36:02;27.60;1.00
5118;DHT22;2578;51.622;7.046;2023-06-04T13:38:27;27.90;1.00
5118;DHT22;2578;51.622;7.046;2023-06-04T13:40:53;27.80;1.00
5118;DHT22;2578;51.622;7.046;2023-06-04T13:43:19;27.60;1.00
5118;DHT22;2578;51.622;7.046;2023-06-04T13:45:44;27.50;1.00
5118;DHT22;2578;51.622;7.046;2023-06-04T13:48:11;27.40;1.00
5118;DHT22;2578;51.622;7.046;2023-06-04T13:50:37;27.70;1.00
5118;DHT22;2578;51.622;7.046;2023-06-04T13:53:03;27.60;1.00
5118;DHT22;2578;51.622;7.046;2023-06-04T13:55:29;27.80;1.00
5118;DHT22;2578;51.622;7.046;2023-06-04T14:00:21;28.00;1.00
5118;DHT22;2578;51.622;7.046;2023-06-04T14:02:48;27.90;1.00
5118;DHT22;2578;51.622;7.046;2023-06-04T14:05:13;28.00;1.00
5118;DHT22;2578;51.622;7.046;2023-06-04T14:07:41;28.30;1.00
5118;DHT22;2578;51.622;7.046;2023-06-04T14:10:08;28.50;1.00
5118;DHT22;2578;51.622;7.046;2023-06-04T14:12:34;28.30;1.00
5118;DHT22;2578;51.622;7.046;2023-06-04T14:15:01;28.00;1.00
5118;DHT22;2578;51.622;7.046;2023-06-04T14:19:52;27.70;1.00
5118;DHT22;2578;51.622;7.046;2023-06-04T14:24:44;27.40;1.00
5118;DHT22;2578;51.622;7.046;2023-06-04T14:27:09;27.40;1.00
5118;DHT22;2578;51.622;7.046;2023-06-04T14:29:36;27.60;1.00
5118;DHT22;2578;51.622;7.046;2023-06-04T14:32:03;27.60;1.00
5118;DHT22;2578;51.622;7.046;2023-06-04T14:36:55;27.20;1.00
5118;DHT22;2578;51.622;7.046;2023-06-04T14:39:23;27.40;1.00
5118;DHT22;2578;51.622;7.046;2023-06-04T14:41:48;27.40;1.00
5118;DHT22;2578;51.622;7.046;2023-06-04T14:44:14;27.50;1.00
5118;DHT22;2578;51.622;7.046;2023-06-04T14:46:40;27.50;1.00
5118;DHT22;2578;51.622;7.046;2023-06-04T14:49:06;27.60;1.00
5118;DHT22;2578;51.622;7.046;2023-06-04T14:51:31;28.00;1.00
5118;DHT22;2578;51.622;7.046;2023-06-04T14:53:57;28.00;1.00
5118;DHT22;2578;51.622;7.046;2023-06-04T14:56:22;28.00;1.00
5118;DHT22;2578;51.622;7.046;2023-06-04T14:58:48;27.90;1.00
5118;DHT22;2578;51.622;7.046;2023-06-04T15:01:13;28.00;1.00
5118;DHT22;2578;51.622;7.046;2023-06-04T15:03:40;28.00;1.00
5118;DHT22;2578;51.622;7.046;2023-06-04T15:06:05;27.90;1.00
5118;DHT22;2578;51.622;7.046;2023-06-04T15:08:31;27.40;1.00
5118;DHT22;2578;51.622;7.046;2023-06-04T15:10:57;28.00;1.00
5118;DHT22;2578;51.622;7.046;2023-06-04T15:13:22;28.10;1.00
5118;DHT22;2578;51.622;7.046;2023-06-04T15:15:48;28.10;1.00
5118;DHT22;2578;51.622;7.046;2023-06-04T15:18:13;28.20;1.00
5118;DHT22;2578;51.622;7.046;2023-06-04T15:20:39;27.60;1.00
5118;DHT22;2578;51.622;7.046;2023-06-04T15:23:04;27.10;1.00
5118;DHT22;2578;51.622;7.046;2023-06-04T15:27:56;27.20;1.00
5118;DHT22;2578;51.622;7.046;2023-06-04T15:30:22;27.20;1.00
5118;DHT22;2578;51.622;7.046;2023-06-04T15:32:48;26.80;1.00
5118;DHT22;2578;51.622;7.046;2023-06-04T15:35:13;26.80;1.00
5118;DHT22;2578;51.622;7.046;2023-06-04T15:37:39;26.90;1.00
5118;DHT22;2578;51.622;7.046;2023-06-04T15:40:05;27.10;1.00
5118;DHT22;2578;51.622;7.046;2023-06-04T15:42:33;27.10;1.00
5118;DHT22;2578;51.622;7.046;2023-06-04T15:44:59;27.10;1.00
5118;DHT22;2578;51.622;7.046;2023-06-04T15:47:25;26.90;1.00
5118;DHT22;2578;51.622;7.046;2023-06-04T15:52:16;27.10;1.00
5118;DHT22;2578;51.622;7.046;2023-06-04T15:54:42;27.10;1.00
5118;DHT22;2578;51.622;7.046;2023-06-04T15:57:07;27.00;1.00
5118;DHT22;2578;51.622;7.046;2023-06-04T15:59:33;27.00;1.00
5118;DHT22;2578;51.622;7.046;2023-06-04T16:01:59;27.10;1.00
5118;DHT22;2578;51.622;7.046;2023-06-04T16:04:24;27.40;1.00
5118;DHT22;2578;51.622;7.046;2023-06-04T16:09:16;27.30;1.00
5118;DHT22;2578;51.622;7.046;2023-06-04T16:11:42;27.20;1.00
5118;DHT22;2578;51.622;7.046;2023-06-04T16:14:07;27.40;1.00
5118;DHT22;2578;51.622;7.046;2023-06-04T16:16:33;27.40;1.00
5118;DHT22;2578;51.622;7.046;2023-06-04T16:18:58;27.30;1.00
5118;DHT22;2578;51.622;7.046;2023-06-04T16:21:25;27.10;1.00
5118;DHT22;2578;51.622;7.046;2023-06-04T16:23:51;27.00;1.00
5118;DHT22;2578;51.622;7.046;2023-06-04T16:26:17;27.00;1.00
5118;DHT22;2578;51.622;7.046;2023-06-04T16:28:43;27.10;1.00
5118;DHT22;2578;51.622;7.046;2023-06-04T16:31:09;27.10;1.00
5118;DHT22;2578;51.622;7.046;2023-06-04T16:33:34;27.10;1.00
5118;DHT22;2578;51.622;7.046;2023-06-04T16:36:00;27.10;1.00
5118;DHT22;2578;51.622;7.046;2023-06-04T16:38:26;27.10;1.00
5118;DHT22;2578;51.622;7.046;2023-06-04T16:40:52;26.90;1.00
5118;DHT22;2578;51.622;7.046;2023-06-04T16:45:45;26.30;1.00
5118;DHT22;2578;51.622;7.046;2023-06-04T16:48:11;26.30;1.00
5118;DHT22;2578;51.622;7.046;2023-06-04T16:50:36;26.30;1.00
5118;DHT22;2578;51.622;7.046;2023-06-04T16:53:02;26.40;1.00
5118;DHT22;2578;51.622;7.046;2023-06-04T16:55:32;26.50;1.00
5118;DHT22;2578;51.622;7.046;2023-06-04T16:58:00;26.70;1.00
5118;DHT22;2578;51.622;7.046;2023-06-04T17:00:26;25.80;1.00
5118;DHT22;2578;51.622;7.046;2023-06-04T17:02:55;27.00;1.00
5118;DHT22;2578;51.622;7.046;2023-06-04T17:05:21;27.20;1.00
5118;DHT22;2578;51.622;7.046;2023-06-04T17:07:46;27.50;1.00
5118;DHT22;2578;51.622;7.046;2023-06-04T17:10:12;27.30;1.00
5118;DHT22;2578;51.622;7.046;2023-06-04T17:12:38;27.20;1.00
5118;DHT22;2578;51.622;7.046;2023-06-04T17:15:04;26.80;1.00
5118;DHT22;2578;51.622;7.046;2023-06-04T17:17:30;26.80;1.00
5118;DHT22;2578;51.622;7.046;2023-06-04T17:19:56;26.90;1.00
5118;DHT22;2578;51.622;7.046;2023-06-04T17:22:22;26.50;1.00
5118;DHT22;2578;51.622;7.046;2023-06-04T17:24:49;26.40;1.00
5118;DHT22;2578;51.622;7.046;2023-06-04T17:27:16;26.40;1.00
5118;DHT22;2578;51.622;7.046;2023-06-04T17:29:41;26.50;1.00
5118;DHT22;2578;51.622;7.046;2023-06-04T17:32:10;26.50;1.00
5118;DHT22;2578;51.622;7.046;2023-06-04T17:34:39;26.50;1.00
5118;DHT22;2578;51.622;7.046;2023-06-04T17:37:05;26.50;1.00
5118;DHT22;2578;51.622;7.046;2023-06-04T17:39:31;26.50;1.00
5118;DHT22;2578;51.622;7.046;2023-06-04T17:41:58;26.40;1.00
5118;DHT22;2578;51.622;7.046;2023-06-04T17:44:24;26.40;1.00
5118;DHT22;2578;51.622;7.046;2023-06-04T17:46:50;26.40;1.00
5118;DHT22;2578;51.622;7.046;2023-06-04T17:49:15;26.50;1.00
5118;DHT22;2578;51.622;7.046;2023-06-04T17:51:41;26.50;1.00
5118;DHT22;2578;51.622;7.046;2023-06-04T17:54:07;26.50;1.00
5118;DHT22;2578;51.622;7.046;2023-06-04T17:56:34;26.50;1.00
5118;DHT22;2578;51.622;7.046;2023-06-04T17:59:04;26.30;1.00
5118;DHT22;2578;51.622;7.046;2023-06-04T18:01:30;27.60;1.00
5118;DHT22;2578;51.622;7.046;2023-06-04T18:03:56;26.00;1.00
5118;DHT22;2578;51.622;7.046;2023-06-04T18:06:21;26.00;1.00
5118;DHT22;2578;51.622;7.046;2023-06-04T18:08:47;26.10;1.00
5118;DHT22;2578;51.622;7.046;2023-06-04T18:11:13;26.10;1.00
5118;DHT22;2578;51.622;7.046;2023-06-04T18:18:30;25.70;1.00
5118;DHT22;2578;51.622;7.046;2023-06-04T18:20:56;25.70;1.00